Cates, Indiana
Current Conditions -  °F | °C
As of 11:55 AM on Tuesday 27 Jan 2015 (Local Time) from KDNV Reporting Station
Haze Haze  
Wind Chill: 22°   Ceiling: 1100
Heat Index: 28°   Visibility: 5mi
Dew Point: 26°   Wind: 6mph
Humidity: 91%   Direction: 30°NNE
Pressure: 30.11"   Gusts: NA
Location:  39.9707°N, 87.3162°W
Report Text: KDNV 271655Z AUTO 03005KT 5SM BR OVC011 M02/M03 A3011 RMK AO2 T10211034
Loading
Personal Weather Stations






























Interactive Weather Map New forecast layout! Learn more

10-Day Weather Forecast

Advertisements
Track Severe Weather on mobile